Time;durP1;ratioP1;P1;durP2;ratioP2;P2;SDS_P1;SDS_P2;PMS_P1;PMS_P2;Temp;Humidity;BMP_temperature;BMP_pressure;BME280_temperature;BME280_humidity;BME280_pressure;Samples;Min_cycle;Max_cycle;Signal;HPM_P1;HPM_P2
2024/04/10 00:02:25;;;;;;;7.80;1.70;;;10.30;99.90;;;;;;5417275;26;20337;-52
2024/04/10 00:04:53;;;;;;;13.73;2.70;;;10.30;99.90;;;;;;5417501;26;20438;-49
2024/04/10 00:07:19;;;;;;;14.23;2.10;;;10.30;99.90;;;;;;5417085;26;20003;-50
2024/04/10 00:09:45;;;;;;;10.00;1.57;;;10.30;99.90;;;;;;5415374;26;20391;-50
2024/04/10 00:12:11;;;;;;;15.90;1.90;;;10.30;99.90;;;;;;5417244;26;19991;-52
2024/04/10 00:14:38;;;;;;;13.33;2.37;;;10.20;99.90;;;;;;5417544;26;20065;-52
2024/04/10 00:17:05;;;;;;;10.67;2.33;;;10.20;99.90;;;;;;5416775;26;20337;-49
2024/04/10 00:19:31;;;;;;;11.07;1.90;;;10.20;99.90;;;;;;5417405;26;19995;-52
2024/04/10 00:21:57;;;;;;;9.13;1.73;;;10.20;99.90;;;;;;5416975;26;20069;-48
2024/04/10 00:24:23;;;;;;;12.83;2.40;;;10.10;99.90;;;;;;5417243;26;20002;-48
2024/04/10 00:26:50;;;;;;;12.03;2.30;;;10.10;99.90;;;;;;5416280;26;20071;-51
2024/04/10 00:29:16;;;;;;;12.03;1.60;;;10.10;99.90;;;;;;5417072;26;20065;-50
2024/04/10 00:31:42;;;;;;;10.23;2.27;;;10.00;99.90;;;;;;5416690;26;19995;-47
2024/04/10 00:34:08;;;;;;;12.50;2.60;;;9.90;99.90;;;;;;5417341;26;19995;-52
2024/04/10 00:36:34;;;;;;;18.00;2.17;;;9.90;99.90;;;;;;5414831;26;20068;-51
2024/04/10 00:39:00;;;;;;;8.83;1.70;;;9.90;99.90;;;;;;5416941;26;20060;-49
2024/04/10 00:41:26;;;;;;;11.93;1.87;;;9.90;99.90;;;;;;5416898;26;20064;-51
2024/04/10 00:43:52;;;;;;;13.23;2.00;;;9.90;99.90;;;;;;5416954;26;19999;-49
2024/04/10 00:46:20;;;;;;;12.20;2.27;;;9.80;99.90;;;;;;5416889;26;19991;-52
2024/04/10 00:48:47;;;;;;;9.77;1.83;;;9.80;99.90;;;;;;5416345;26;19991;-48
2024/04/10 00:51:20;;;;;;;12.57;1.97;;;9.80;99.90;;;;;;5416471;26;19999;-50
2024/04/10 00:53:47;;;;;;;14.10;1.83;;;9.70;99.90;;;;;;5417016;26;19999;-48
2024/04/10 00:56:13;;;;;;;12.87;1.67;;;9.70;99.90;;;;;;5416598;26;20045;-51
2024/04/10 00:58:40;;;;;;;14.60;1.80;;;9.60;99.90;;;;;;5416143;26;19992;-52
2024/04/10 01:01:08;;;;;;;14.10;1.83;;;9.60;99.90;;;;;;5416333;26;19987;-52
2024/04/10 01:03:36;;;;;;;17.50;2.07;;;9.60;99.90;;;;;;5414774;26;19992;-50
2024/04/10 01:06:07;;;;;;;11.63;1.80;;;9.50;99.90;;;;;;5414655;26;19992;-52
2024/04/10 01:08:37;;;;;;;12.67;1.93;;;9.50;99.90;;;;;;5416332;26;20382;-51
2024/04/10 01:11:07;;;;;;;12.00;1.80;;;9.40;99.90;;;;;;5416229;26;20068;-50
2024/04/10 01:13:33;;;;;;;10.23;1.80;;;9.40;99.90;;;;;;5415816;26;20012;-49
2024/04/10 01:16:00;;;;;;;11.20;1.90;;;9.40;99.90;;;;;;5416277;26;20076;-52
2024/04/10 01:18:26;;;;;;;14.67;2.40;;;9.50;99.90;;;;;;5416237;26;20062;-49
2024/04/10 01:20:52;;;;;;;10.93;1.87;;;9.40;99.90;;;;;;5416589;26;20069;-50
2024/04/10 01:23:18;;;;;;;11.80;2.00;;;9.40;99.90;;;;;;5416390;26;19991;-50
2024/04/10 01:25:45;;;;;;;12.93;2.20;;;9.40;99.90;;;;;;5416238;26;19991;-49
2024/04/10 01:28:11;;;;;;;14.30;2.20;;;9.40;99.90;;;;;;5415823;26;20419;-48
2024/04/10 01:30:37;;;;;;;13.90;2.00;;;9.30;99.90;;;;;;5416291;26;20132;-50
2024/04/10 01:33:03;;;;;;;11.73;1.97;;;9.40;99.90;;;;;;5416100;26;20578;-51
2024/04/10 01:35:29;;;;;;;13.47;2.00;;;9.40;99.90;;;;;;5416073;26;20390;-51
2024/04/10 01:37:55;;;;;;;14.80;1.73;;;9.30;99.90;;;;;;5415601;26;20333;-47
2024/04/10 01:40:22;;;;;;;10.17;2.20;;;9.30;99.90;;;;;;5415998;26;20263;-50
2024/04/10 01:42:48;;;;;;;14.23;2.47;;;9.30;99.90;;;;;;5414317;26;20398;-47
2024/04/10 01:45:15;;;;;;;14.03;2.20;;;9.30;99.90;;;;;;5415976;26;20003;-50
2024/04/10 01:47:41;;;;;;;18.53;2.43;;;9.20;99.90;;;;;;5415760;26;20005;-48
2024/04/10 01:50:07;;;;;;;11.00;2.07;;;9.20;99.90;;;;;;5416067;26;20003;-51
2024/04/10 01:52:34;;;;;;;22.20;4.17;;;9.10;99.90;;;;;;5414155;26;19992;-51
2024/04/10 01:55:00;;;;;;;11.87;1.90;;;9.10;99.90;;;;;;5415728;26;20003;-48
2024/04/10 01:57:26;;;;;;;8.77;2.03;;;9.10;99.90;;;;;;5415360;26;19987;-51
2024/04/10 01:59:52;;;;;;;13.53;2.17;;;9.10;99.90;;;;;;5415634;26;20061;-50
2024/04/10 02:02:19;;;;;;;16.80;2.20;;;9.10;99.90;;;;;;5412630;26;20024;-48
2024/04/10 02:04:45;;;;;;;16.13;2.00;;;9.00;99.90;;;;;;5414334;26;20024;-51
2024/04/10 02:07:12;;;;;;;12.27;2.10;;;9.00;99.90;;;;;;5415344;26;19991;-50
2024/04/10 02:09:38;;;;;;;14.00;2.23;;;9.00;99.90;;;;;;5415731;26;19995;-48
2024/04/10 02:12:04;;;;;;;13.97;2.07;;;8.90;99.90;;;;;;5415425;26;20061;-47
2024/04/10 02:14:31;;;;;;;14.63;2.17;;;8.90;99.90;;;;;;5415355;26;19991;-48
2024/04/10 02:16:57;;;;;;;9.90;2.27;;;8.80;99.90;;;;;;5414706;26;20072;-48
2024/04/10 02:19:24;;;;;;;10.50;1.73;;;8.80;99.90;;;;;;5415429;26;20050;-51
2024/04/10 02:21:52;;;;;;;14.10;2.57;;;8.80;99.90;;;;;;5415136;26;20089;-47
2024/04/10 02:24:19;;;;;;;7.60;1.43;;;8.80;99.90;;;;;;5415319;26;20073;-50
2024/04/10 02:26:45;;;;;;;15.57;2.70;;;8.70;99.90;;;;;;5414713;26;20936;-50
2024/04/10 02:29:12;;;;;;;12.73;2.03;;;8.60;99.90;;;;;;5415208;26;19987;-48
2024/04/10 02:31:38;;;;;;;16.00;3.13;;;8.60;99.90;;;;;;5413340;26;20409;-48
2024/04/10 02:34:04;;;;;;;17.63;2.17;;;8.60;99.90;;;;;;5415326;26;20029;-46
2024/04/10 02:36:30;;;;;;;14.07;3.17;;;8.60;99.90;;;;;;5414649;26;20068;-46
2024/04/10 02:38:56;;;;;;;15.97;2.10;;;8.50;99.90;;;;;;5414916;26;20031;-47
2024/04/10 02:41:22;;;;;;;11.77;1.83;;;8.50;99.90;;;;;;5414824;26;19992;-50
2024/04/10 02:43:48;;;;;;;13.77;2.47;;;8.40;99.90;;;;;;5415232;26;20007;-47
2024/04/10 02:46:17;;;;;;;11.43;2.00;;;8.40;99.90;;;;;;5415033;26;20422;-50
2024/04/10 02:48:44;;;;;;;16.40;2.45;;;8.40;99.90;;;;;;5414386;26;19995;-46
2024/04/10 02:51:10;;;;;;;19.77;2.50;;;8.40;99.90;;;;;;5414585;26;20072;-50
2024/04/10 02:53:36;;;;;;;11.10;2.67;;;8.40;99.90;;;;;;5414723;26;19996;-47
2024/04/10 02:56:04;;;;;;;12.60;1.80;;;8.30;99.90;;;;;;5414784;26;19996;-47
2024/04/10 02:58:30;;;;;;;13.93;2.40;;;8.30;99.90;;;;;;5412734;26;20446;-46
2024/04/10 03:00:57;;;;;;;14.80;2.57;;;8.20;99.90;;;;;;5414562;26;20448;-50
2024/04/10 03:03:24;;;;;;;13.77;2.50;;;8.30;99.90;;;;;;5414623;26;19995;-52
2024/04/10 03:06:02;;;;;;;13.97;2.60;;;8.40;99.90;;;;;;5414603;26;19999;-51
2024/04/10 03:08:29;;;;;;;13.30;2.25;;;8.50;99.90;;;;;;5414195;26;20028;-51
2024/04/10 03:10:55;;;;;;;19.47;2.67;;;8.50;99.90;;;;;;5412052;26;19996;-49
2024/04/10 03:13:21;;;;;;;13.97;2.90;;;8.50;99.90;;;;;;5415053;26;20092;-47
2024/04/10 03:15:47;;;;;;;11.40;1.97;;;8.50;99.90;;;;;;5418009;26;20064;-49
2024/04/10 03:18:13;;;;;;;15.03;2.33;;;8.60;99.90;;;;;;5417783;26;20003;-48
2024/04/10 03:20:39;;;;;;;15.47;2.70;;;8.60;99.90;;;;;;5418066;26;19987;-51
2024/04/10 03:23:05;;;;;;;20.30;3.27;;;8.60;99.90;;;;;;5418109;26;20060;-50
2024/04/10 03:25:33;;;;;;;9.90;2.10;;;8.60;99.90;;;;;;5418066;26;19995;-50
2024/04/10 03:27:59;;;;;;;15.60;3.13;;;8.50;99.90;;;;;;5417590;26;20006;-51
2024/04/10 03:30:26;;;;;;;16.80;2.40;;;8.60;99.90;;;;;;5416070;26;19996;-48
2024/04/10 03:32:54;;;;;;;14.63;2.20;;;8.70;99.90;;;;;;5417718;26;19992;-48
2024/04/10 03:35:21;;;;;;;17.97;2.60;;;8.60;99.90;;;;;;5417808;26;20000;-49
2024/04/10 03:37:47;;;;;;;20.20;2.23;;;8.50;99.90;;;;;;5417668;26;20408;-51
2024/04/10 03:40:13;;;;;;;14.20;2.50;;;8.40;99.90;;;;;;5417686;26;20064;-48
2024/04/10 03:42:40;;;;;;;12.00;2.03;;;8.50;99.90;;;;;;5417859;26;19996;-49
2024/04/10 03:45:06;;;;;;;12.83;2.50;;;8.50;99.90;;;;;;5417573;26;19999;-47
2024/04/10 03:47:32;;;;;;;10.70;2.63;;;8.50;99.90;;;;;;5417157;26;20444;-50
2024/04/10 03:49:59;;;;;;;13.17;2.50;;;8.40;99.90;;;;;;5417724;26;19995;-52
2024/04/10 03:52:25;;;;;;;12.93;2.57;;;8.40;99.90;;;;;;5417419;26;19996;-49
2024/04/10 03:54:51;;;;;;;14.80;2.80;;;8.40;99.90;;;;;;5417620;26;20394;-48
2024/04/10 03:57:17;;;;;;;17.97;3.03;;;8.40;99.90;;;;;;5417072;26;20068;-47
2024/04/10 03:59:43;;;;;;;11.27;3.17;;;8.50;99.90;;;;;;5417289;26;20441;-48
2024/04/10 04:02:10;;;;;;;15.30;3.13;;;8.50;99.90;;;;;;5417359;26;20072;-47
2024/04/10 04:04:36;;;;;;;15.63;2.83;;;8.50;99.90;;;;;;5417394;26;20003;-47
2024/04/10 04:07:02;;;;;;;15.73;2.50;;;8.50;99.90;;;;;;5417262;26;20449;-52
2024/04/10 04:09:28;;;;;;;13.87;2.43;;;8.60;99.90;;;;;;5417123;26;19987;-50
2024/04/10 04:11:54;;;;;;;12.47;2.83;;;8.60;99.90;;;;;;5417298;26;19991;-47
2024/04/10 04:14:21;;;;;;;13.90;2.30;;;8.60;99.90;;;;;;5417176;26;19991;-50
2024/04/10 04:16:47;;;;;;;15.00;2.60;;;8.60;99.90;;;;;;5417027;26;20007;-47
2024/04/10 04:19:13;;;;;;;13.07;2.73;;;8.60;99.90;;;;;;5417452;26;20068;-48
2024/04/10 04:21:39;;;;;;;13.70;2.50;;;8.60;99.90;;;;;;5416867;26;20068;-48
2024/04/10 04:24:05;;;;;;;10.23;2.13;;;8.60;99.90;;;;;;5417183;26;20401;-47
2024/04/10 04:26:31;;;;;;;15.33;2.77;;;8.60;99.90;;;;;;5416093;26;20078;-47
2024/04/10 04:28:57;;;;;;;11.33;2.93;;;8.60;99.90;;;;;;5416779;26;19991;-47
2024/04/10 04:31:23;;;;;;;15.77;2.20;;;8.60;99.90;;;;;;5416975;26;19991;-46
2024/04/10 04:33:50;;;;;;;13.80;2.17;;;8.60;99.90;;;;;;5415742;26;20448;-46
2024/04/10 04:36:16;;;;;;;12.93;2.50;;;8.60;99.90;;;;;;5417057;26;19995;-47
2024/04/10 04:38:42;;;;;;;18.00;2.63;;;8.50;99.90;;;;;;5416746;26;20064;-47
2024/04/10 04:41:08;;;;;;;17.20;3.30;;;8.40;99.90;;;;;;5416799;26;20429;-46
2024/04/10 04:43:34;;;;;;;17.80;3.17;;;8.50;99.90;;;;;;5416643;26;20332;-47
2024/04/10 04:46:00;;;;;;;12.20;1.97;;;8.50;99.90;;;;;;5416796;26;19995;-46
2024/04/10 04:48:26;;;;;;;12.30;2.47;;;8.60;99.90;;;;;;5416390;26;20003;-47
2024/04/10 04:50:53;;;;;;;12.30;2.40;;;8.60;99.90;;;;;;5416632;26;19995;-46
2024/04/10 04:53:20;;;;;;;14.07;2.73;;;8.60;99.90;;;;;;5416611;26;20039;-46
2024/04/10 04:55:47;;;;;;;12.03;2.53;;;8.60;99.90;;;;;;5416735;26;19995;-45
2024/04/10 04:58:13;;;;;;;14.23;2.10;;;8.60;99.90;;;;;;5416348;26;19991;-50
2024/04/10 05:00:40;;;;;;;15.87;2.50;;;8.60;99.90;;;;;;5416650;26;19995;-54
2024/04/10 05:03:06;;;;;;;16.37;3.50;;;8.50;99.90;;;;;;5417870;26;20068;-50
2024/04/10 05:05:33;;;;;;;16.47;3.30;;;8.60;99.90;;;;;;5416142;26;19995;-53
2024/04/10 05:07:59;;;;;;;13.77;2.43;;;8.60;99.90;;;;;;5417329;26;20333;-53
2024/04/10 05:10:26;;;;;;;12.93;3.23;;;8.70;99.90;;;;;;5417674;26;19995;-53
2024/04/10 05:12:52;;;;;;;11.83;2.33;;;8.70;99.90;;;;;;5416892;26;20443;-49
2024/04/10 05:15:18;;;;;;;14.23;2.80;;;8.80;99.90;;;;;;5416367;26;20041;-50
2024/04/10 05:17:48;;;;;;;15.30;2.47;;;8.80;99.90;;;;;;5415972;26;20116;-52
2024/04/10 05:20:15;;;;;;;12.83;2.10;;;9.00;99.90;;;;;;5416228;26;20475;-52
2024/04/10 05:22:42;;;;;;;11.33;2.43;;;8.90;99.90;;;;;;5414368;26;20063;-49
2024/04/10 05:25:09;;;;;;;11.73;2.30;;;9.00;99.90;;;;;;5414603;26;19991;-48
2024/04/10 05:27:38;;;;;;;12.57;2.60;;;8.90;99.90;;;;;;5415724;26;20018;-52
2024/04/10 05:30:07;;;;;;;16.70;2.50;;;8.90;99.90;;;;;;5416099;26;19999;-52
2024/04/10 05:32:40;;;;;;;10.55;2.10;;;8.90;99.90;;;;;;5416172;26;19995;-47
2024/04/10 05:35:10;;;;;;;11.00;2.10;;;9.00;99.90;;;;;;5416207;26;20329;-48
2024/04/10 05:37:37;;;;;;;15.10;2.90;;;8.90;99.90;;;;;;5414312;26;20019;-49
2024/04/10 05:40:05;;;;;;;10.67;2.67;;;8.90;99.90;;;;;;5416068;26;19995;-51
2024/04/10 05:42:34;;;;;;;11.68;2.40;;;8.90;99.90;;;;;;5416170;26;20464;-47
2024/04/10 05:45:00;;;;;;;11.80;2.77;;;9.10;99.90;;;;;;5416112;26;20470;-48
2024/04/10 05:47:26;;;;;;;11.13;2.17;;;9.10;99.90;;;;;;5415492;26;20545;-48
2024/04/10 05:49:52;;;;;;;15.57;2.50;;;9.20;99.90;;;;;;5415942;26;20003;-47
2024/04/10 05:52:18;;;;;;;11.60;2.53;;;9.30;99.90;;;;;;5416009;26;19992;-47
2024/04/10 05:54:52;;;;;;;12.27;2.40;;;9.30;99.90;;;;;;5415931;26;19992;-47
2024/04/10 05:57:18;;;;;;;15.83;2.37;;;9.20;99.90;;;;;;5415667;26;20007;-48
2024/04/10 06:01:20;;;;;;;13.03;2.47;;;9.20;99.90;;;;;;5481865;25;20484;-48
2024/04/10 06:03:46;;;;;;;14.40;2.73;;;9.30;99.90;;;;;;5470372;26;19990;-48
2024/04/10 06:06:13;;;;;;;9.53;2.40;;;9.30;99.90;;;;;;5468737;26;19995;-48
2024/04/10 06:08:45;;;;;;;13.67;1.93;;;9.30;99.90;;;;;;5469756;26;19986;-47
2024/04/10 06:11:12;;;;;;;12.80;2.80;;;9.30;99.90;;;;;;5470450;26;19999;-48
2024/04/10 06:13:38;;;;;;;10.93;2.53;;;9.40;99.90;;;;;;5470548;26;19999;-51
2024/04/10 06:16:05;;;;;;;11.00;2.40;;;9.40;99.90;;;;;;5470491;26;19999;-47
2024/04/10 06:18:32;;;;;;;11.97;2.40;;;9.40;99.90;;;;;;5470278;26;19995;-48
2024/04/10 06:21:03;;;;;;;9.50;2.40;;;9.40;99.90;;;;;;5470125;26;20062;-45
2024/04/10 06:23:32;;;;;;;15.47;3.53;;;9.40;99.90;;;;;;5470415;26;20045;-51
2024/04/10 06:25:58;;;;;;;13.65;3.00;;;9.50;99.90;;;;;;5470452;26;20437;-48
2024/04/10 06:28:25;;;;;;;14.13;2.87;;;9.70;99.90;;;;;;5469799;26;20031;-48
2024/04/10 06:30:59;;;;;;;13.97;3.23;;;9.60;99.90;;;;;;5469887;26;20067;-51
2024/04/10 06:33:25;;;;;;;10.57;2.30;;;9.70;99.90;;;;;;5470327;26;19995;-51
2024/04/10 06:35:51;;;;;;;18.20;3.03;;;9.70;99.90;;;;;;5470662;26;20504;-47
2024/04/10 06:38:17;;;;;;;16.07;3.77;;;9.70;99.90;;;;;;5469662;26;19990;-50
2024/04/10 06:40:43;;;;;;;15.77;2.53;;;9.80;99.90;;;;;;5468060;26;19991;-48
2024/04/10 06:43:10;;;;;;;10.80;2.47;;;9.90;99.90;;;;;;5469761;26;20027;-50
2024/04/10 06:45:36;;;;;;;9.93;2.70;;;10.10;99.90;;;;;;5469844;26;19990;-50
2024/04/10 06:48:03;;;;;;;9.73;2.17;;;10.30;99.90;;;;;;5469330;26;20005;-51
2024/04/10 06:50:29;;;;;;;10.57;2.10;;;10.40;99.90;;;;;;5469523;26;20005;-50
2024/04/10 06:52:55;;;;;;;11.30;3.80;;;10.60;99.90;;;;;;5469745;26;20067;-48
2024/04/10 06:55:21;;;;;;;20.67;4.10;;;10.70;99.90;;;;;;5469610;26;19994;-49
2024/04/10 06:57:47;;;;;;;13.27;2.90;;;10.60;99.90;;;;;;5469433;26;20516;-46
2024/04/10 07:00:14;;;;;;;18.47;4.13;;;10.50;99.90;;;;;;5469445;26;20451;-50
2024/04/10 07:02:41;;;;;;;13.67;3.33;;;10.50;99.90;;;;;;5469416;26;19995;-50
2024/04/10 07:05:07;;;;;;;12.90;2.77;;;10.60;99.90;;;;;;5469646;26;20393;-47
2024/04/10 07:07:33;;;;;;;11.10;2.70;;;10.70;99.90;;;;;;5469453;26;20451;-50
2024/04/10 07:09:59;;;;;;;17.43;2.97;;;10.90;99.90;;;;;;5469961;26;20067;-50
2024/04/10 07:12:25;;;;;;;11.13;2.40;;;10.90;99.90;;;;;;5454124;26;20068;-50
2024/04/10 07:14:51;;;;;;;15.70;2.87;;;11.00;99.90;;;;;;5454400;26;19995;-51
2024/04/10 07:17:17;;;;;;;11.97;2.77;;;11.10;99.90;;;;;;5451922;26;19991;-49
2024/04/10 07:19:43;;;;;;;10.10;2.23;;;11.10;99.90;;;;;;5453669;26;19990;-50
2024/04/10 07:22:09;;;;;;;10.10;2.50;;;11.10;99.90;;;;;;5453846;26;20064;-48
2024/04/10 07:24:37;;;;;;;13.40;2.00;;;11.00;99.90;;;;;;5453932;26;20674;-48
2024/04/10 07:27:04;;;;;;;11.83;2.83;;;11.00;99.90;;;;;;5453691;26;19991;-51
2024/04/10 07:29:30;;;;;;;11.73;2.13;;;10.90;99.90;;;;;;5453625;26;20050;-49
2024/04/10 07:31:56;;;;;;;13.43;2.07;;;10.90;99.90;;;;;;5453829;26;20356;-51
2024/04/10 07:34:22;;;;;;;19.70;4.00;;;10.90;99.90;;;;;;5453630;26;20044;-51
2024/04/10 07:36:48;;;;;;;11.40;2.47;;;11.10;99.90;;;;;;5453154;26;19995;-49
2024/04/10 07:39:15;;;;;;;11.37;2.30;;;11.10;99.90;;;;;;5453258;26;19994;-51
2024/04/10 07:41:43;;;;;;;11.40;2.50;;;11.00;99.90;;;;;;5453385;26;19995;-48
2024/04/10 07:44:09;;;;;;;8.53;2.00;;;11.00;99.90;;;;;;5453442;26;19994;-51
2024/04/10 07:46:35;;;;;;;11.97;3.17;;;11.10;99.90;;;;;;5453070;26;19991;-50
2024/04/10 07:49:02;;;;;;;21.17;3.93;;;11.10;99.90;;;;;;5453313;26;19991;-51
2024/04/10 07:51:28;;;;;;;13.47;2.93;;;11.10;99.90;;;;;;5453770;26;20018;-50
2024/04/10 07:53:54;;;;;;;18.80;3.70;;;11.20;99.90;;;;;;5453383;26;20447;-50
2024/04/10 07:56:20;;;;;;;16.27;3.73;;;11.10;99.90;;;;;;5453323;26;20071;-50
2024/04/10 07:58:46;;;;;;;12.20;2.40;;;11.10;99.90;;;;;;5452811;26;19998;-47
2024/04/10 08:01:13;;;;;;;17.43;2.77;;;11.10;99.90;;;;;;5453130;26;20068;-50
2024/04/10 08:03:39;;;;;;;13.80;2.60;;;11.10;99.90;;;;;;5453363;26;20005;-47
2024/04/10 08:06:08;;;;;;;11.97;2.70;;;11.10;99.90;;;;;;5453129;26;20040;-49
2024/04/10 08:08:36;;;;;;;12.63;2.40;;;11.20;99.90;;;;;;5452785;26;20006;-50
2024/04/10 08:11:10;;;;;;;18.40;2.90;;;11.30;99.90;;;;;;5481509;26;20345;-50
2024/04/10 08:13:37;;;;;;;9.27;1.93;;;11.30;99.90;;;;;;5452906;26;20010;-47
2024/04/10 08:16:05;;;;;;;10.30;2.50;;;11.40;99.90;;;;;;5453252;26;20532;-51
2024/04/10 08:18:36;;;;;;;10.00;2.33;;;11.50;99.90;;;;;;5452648;26;20070;-49
2024/04/10 08:21:10;;;;;;;12.87;2.20;;;11.60;99.90;;;;;;5452946;26;20343;-51
2024/04/10 08:23:37;;;;;;;9.53;2.30;;;11.60;99.90;;;;;;5452690;26;20007;-50
2024/04/10 08:26:14;;;;;;;11.80;2.20;;;11.80;99.90;;;;;;5453523;26;20010;-49
2024/04/10 08:28:45;;;;;;;8.60;2.40;;;12.00;99.90;;;;;;5452524;26;20134;-51
2024/04/10 08:31:22;;;;;;;10.03;2.20;;;12.30;99.90;;;;;;5451435;26;20010;-51
2024/04/10 08:33:49;;;;;;;11.50;2.27;;;12.50;99.90;;;;;;5452944;26;19998;-49
2024/04/10 08:36:16;;;;;;;12.85;2.55;;;12.70;99.90;;;;;;5452628;26;20448;-48
2024/04/10 08:38:44;;;;;;;11.98;2.35;;;12.80;99.90;;;;;;5452468;26;20004;-49
2024/04/10 08:41:18;;;;;;;13.48;2.25;;;13.10;99.90;;;;;;5452702;26;20067;-48
2024/04/10 08:43:46;;;;;;;21.02;7.28;;;13.40;99.90;;;;;;5452872;26;20072;-50
2024/04/10 08:46:13;;;;;;;12.60;2.47;;;13.50;99.90;;;;;;5452564;26;19991;-48
2024/04/10 08:48:41;;;;;;;12.80;2.70;;;13.50;99.90;;;;;;5452162;26;19987;-51
2024/04/10 08:51:12;;;;;;;9.20;2.05;;;13.60;99.90;;;;;;5452774;26;19998;-48
2024/04/10 08:53:42;;;;;;;10.98;2.53;;;13.50;99.90;;;;;;5452500;26;19998;-48
2024/04/10 08:56:10;;;;;;;10.52;2.45;;;13.60;99.90;;;;;;5452572;26;20072;-52
2024/04/10 08:58:36;;;;;;;10.00;2.30;;;13.80;99.90;;;;;;5452357;26;20333;-50
2024/04/10 09:01:02;;;;;;;10.20;2.53;;;13.80;99.90;;;;;;5452028;26;20340;-51
2024/04/10 09:03:28;;;;;;;11.05;2.58;;;13.90;99.90;;;;;;5452276;26;19995;-48
2024/04/10 09:06:02;;;;;;;11.73;2.72;;;14.20;99.90;;;;;;5452426;26;19995;-48
2024/04/10 09:08:28;;;;;;;6.82;2.20;;;14.30;99.90;;;;;;5451978;26;20009;-49
2024/04/10 09:10:54;;;;;;;14.20;3.05;;;14.30;99.90;;;;;;5452343;26;19995;-51
2024/04/10 09:13:20;;;;;;;12.50;2.90;;;14.20;99.90;;;;;;5480922;26;20005;-47
2024/04/10 09:15:47;;;;;;;9.07;2.58;;;14.20;99.90;;;;;;5452218;26;20341;-49
2024/04/10 09:18:13;;;;;;;10.02;2.72;;;14.20;99.90;;;;;;5451842;26;20336;-52
2024/04/10 09:20:40;;;;;;;10.68;2.72;;;14.20;99.90;;;;;;5452199;26;19999;-49
2024/04/10 09:23:09;;;;;;;8.02;2.17;;;14.00;99.90;;;;;;5451931;26;20001;-49
2024/04/10 09:25:37;;;;;;;6.30;2.22;;;13.80;99.90;;;;;;5452111;26;20036;-52
2024/04/10 09:28:07;;;;;;;8.73;2.22;;;13.90;99.90;;;;;;5451827;26;19995;-51
2024/04/10 09:30:33;;;;;;;;;;;14.20;99.90;;;;;;5450870;26;19999;-50
2024/04/10 09:33:01;;;;;;;9.05;2.00;;;14.70;99.90;;;;;;5451850;26;19924;-50
2024/04/10 09:35:27;;;;;;;10.05;1.98;;;14.90;99.90;;;;;;5451143;26;19999;-51
2024/04/10 09:38:01;;;;;;;10.02;2.28;;;14.90;99.90;;;;;;5451628;26;20430;-51
2024/04/10 09:40:29;;;;;;;8.98;2.15;;;14.80;99.90;;;;;;5451694;26;20007;-51
2024/04/10 09:43:05;;;;;;;10.95;3.10;;;15.00;99.90;;;;;;5451469;26;20044;-50
2024/04/10 09:45:37;;;;;;;5.60;1.80;;;14.90;99.90;;;;;;5451988;26;20002;-49
2024/04/10 09:48:11;;;;;;;8.07;2.00;;;14.80;99.90;;;;;;5451566;26;19995;-50
2024/04/10 09:50:39;;;;;;;5.20;1.77;;;15.00;99.90;;;;;;5451568;26;20006;-47
2024/04/10 09:53:06;;;;;;;6.28;1.73;;;15.50;99.90;;;;;;5451321;26;19999;-48
2024/04/10 09:55:33;;;;;;;9.63;1.90;;;16.00;99.80;;;;;;5451385;26;20006;-49
2024/04/10 09:58:04;;;;;;;6.72;1.70;;;16.20;99.70;;;;;;5451045;26;20006;-45
2024/04/10 10:00:32;;;;;;;6.90;1.70;;;16.40;99.90;;;;;;5451706;26;20027;-48
2024/04/10 10:03:09;;;;;;;8.98;1.63;;;16.80;98.40;;;;;;5449534;26;19994;-49
2024/04/10 10:05:37;;;;;;;9.90;1.73;;;16.90;98.50;;;;;;5451442;26;19995;-51
2024/04/10 10:08:13;;;;;;;7.88;1.98;;;16.60;98.10;;;;;;5451109;26;20369;-50
2024/04/10 10:10:43;;;;;;;9.23;1.95;;;16.10;98.90;;;;;;5451119;26;20420;-50
2024/04/10 10:13:10;;;;;;;7.55;1.75;;;15.50;99.10;;;;;;5451541;26;20463;-50
2024/04/10 10:15:36;;;;;;;6.70;1.50;;;15.10;99.90;;;;;;5451728;26;19990;-50
2024/04/10 10:18:02;;;;;;;9.02;2.28;;;14.80;99.90;;;;;;5450644;26;20006;-50
2024/04/10 10:20:30;;;;;;;5.82;1.50;;;14.60;99.90;;;;;;5450617;26;20331;-48
2024/04/10 10:23:05;;;;;;;8.60;2.13;;;14.70;99.90;;;;;;5451024;26;19991;-52
2024/04/10 10:25:32;;;;;;;4.40;1.25;;;15.60;99.90;;;;;;5451449;26;20520;-47
2024/04/10 10:28:08;;;;;;;7.65;1.40;;;16.90;98.00;;;;;;5450740;26;19991;-50
2024/04/10 10:30:35;;;;;;;6.40;1.48;;;17.60;96.20;;;;;;5451010;26;20454;-49
2024/04/10 10:33:02;;;;;;;5.68;1.65;;;17.10;95.80;;;;;;5451332;26;20398;-51
2024/04/10 10:35:28;;;;;;;5.28;1.33;;;16.50;96.60;;;;;;5450991;26;19991;-48
2024/04/10 10:37:56;;;;;;;8.60;1.58;;;16.00;97.40;;;;;;5450480;26;20397;-51
2024/04/10 10:40:24;;;;;;;4.60;1.27;;;15.40;98.30;;;;;;5450559;26;20528;-48
2024/04/10 10:43:04;;;;;;;7.05;1.42;;;15.40;98.10;;;;;;5450754;26;20003;-50
2024/04/10 10:45:31;;;;;;;4.80;1.58;;;16.30;98.00;;;;;;5448517;26;20025;-49
2024/04/10 10:47:59;;;;;;;4.88;1.30;;;17.70;96.10;;;;;;5453645;26;20382;-50
2024/04/10 10:50:25;;;;;;;6.53;1.50;;;19.20;93.80;;;;;;5454471;26;19991;-50
2024/04/10 10:52:52;;;;;;;7.75;1.30;;;20.50;92.60;;;;;;5454902;26;20064;-52
2024/04/10 10:55:18;;;;;;;4.60;1.17;;;21.20;91.40;;;;;;5454321;26;19994;-50
2024/04/10 10:57:44;;;;;;;6.13;1.55;;;21.70;90.00;;;;;;5453951;26;20444;-49
2024/04/10 11:00:16;;;;;;;4.95;1.30;;;21.20;87.40;;;;;;5454187;26;20063;-52
2024/04/10 11:02:43;;;;;;;5.18;1.33;;;20.30;87.20;;;;;;5454054;26;20031;-49
2024/04/10 11:05:14;;;;;;;6.10;1.60;;;19.30;89.10;;;;;;5453705;26;20072;-50
2024/04/10 11:07:41;;;;;;;3.78;1.15;;;18.50;90.90;;;;;;5453543;26;19995;-47
2024/04/10 11:10:12;;;;;;;6.28;1.58;;;17.80;91.50;;;;;;5453802;26;19995;-47
2024/04/10 11:12:39;;;;;;;5.70;1.48;;;17.80;92.50;;;;;;5454023;26;20005;-50
2024/04/10 11:15:10;;;;;;;3.35;1.15;;;18.20;93.30;;;;;;5453904;26;19995;-50
2024/04/10 11:17:37;;;;;;;4.70;1.33;;;18.50;92.10;;;;;;5453684;26;20014;-50
2024/04/10 11:20:10;;;;;;;5.10;1.38;;;18.80;91.10;;;;;;5453293;26;20063;-48
2024/04/10 11:22:37;;;;;;;4.85;1.27;;;18.90;90.20;;;;;;5454088;26;20006;-49
2024/04/10 11:25:03;;;;;;;7.65;1.80;;;19.20;89.30;;;;;;5453655;26;20360;-51
2024/04/10 11:27:29;;;;;;;6.13;1.55;;;19.60;91.10;;;;;;5454012;26;20071;-51
2024/04/10 11:29:55;;;;;;;7.88;1.65;;;19.50;87.30;;;;;;5453698;26;19995;-46
2024/04/10 11:32:21;;;;;;;5.15;1.27;;;19.60;87.50;;;;;;5454064;26;20068;-50
2024/04/10 11:34:47;;;;;;;6.90;1.33;;;19.00;89.00;;;;;;5454065;26;20010;-51
2024/04/10 11:37:14;;;;;;;6.75;1.83;;;18.30;90.30;;;;;;5453226;26;19998;-49
2024/04/10 11:39:43;;;;;;;7.43;1.40;;;17.80;90.60;;;;;;5453655;26;20332;-48
2024/04/10 11:42:09;;;;;;;4.13;1.17;;;17.40;91.40;;;;;;5453708;26;20009;-47
2024/04/10 11:44:35;;;;;;;5.72;1.40;;;17.50;91.00;;;;;;5453426;26;19994;-48
2024/04/10 11:47:01;;;;;;;5.63;1.20;;;17.90;91.80;;;;;;5453520;26;20063;-49
2024/04/10 11:49:27;;;;;;;5.88;1.25;;;18.30;91.60;;;;;;5453527;26;20006;-51
2024/04/10 11:51:54;;;;;;;4.68;1.30;;;18.50;90.40;;;;;;5453305;26;19991;-50
2024/04/10 11:54:20;;;;;;;7.15;1.33;;;18.90;90.40;;;;;;5452029;26;20007;-51
2024/04/10 11:56:46;;;;;;;4.28;1.05;;;19.00;85.50;;;;;;5451405;26;20458;-49
2024/04/10 11:59:12;;;;;;;4.68;1.00;;;18.90;89.50;;;;;;5452686;26;19991;-49
2024/04/10 12:01:38;;;;;;;5.20;1.50;;;19.00;87.20;;;;;;5453202;26;20044;-50
2024/04/10 12:04:04;;;;;;;9.45;1.40;;;18.80;84.60;;;;;;5453081;26;20030;-50
2024/04/10 12:06:30;;;;;;;7.47;1.70;;;18.80;87.20;;;;;;5452982;26;19995;-47
2024/04/10 12:08:56;;;;;;;5.32;1.42;;;18.70;86.30;;;;;;5452805;26;19994;-50
2024/04/10 12:11:22;;;;;;;6.00;1.83;;;18.40;90.10;;;;;;5452992;26;20091;-49
2024/04/10 12:13:48;;;;;;;6.07;1.60;;;18.50;87.60;;;;;;5452918;26;19991;-48
2024/04/10 12:16:14;;;;;;;5.53;1.58;;;18.40;88.30;;;;;;5452982;26;20068;-51
2024/04/10 12:18:40;;;;;;;6.47;1.20;;;18.50;89.60;;;;;;5452567;26;20055;-51
2024/04/10 12:21:08;;;;;;;6.00;1.40;;;18.60;89.70;;;;;;5452908;26;20002;-51
2024/04/10 12:23:34;;;;;;;5.93;1.73;;;18.30;87.40;;;;;;5452873;26;19995;-46
2024/04/10 12:26:01;;;;;;;4.70;1.52;;;18.20;88.60;;;;;;5452913;26;20068;-49
2024/04/10 12:28:27;;;;;;;9.93;1.67;;;18.20;89.20;;;;;;5450761;26;20502;-50
2024/04/10 12:30:53;;;;;;;5.82;1.40;;;18.30;89.00;;;;;;5452787;26;19990;-46
2024/04/10 12:33:20;;;;;;;5.45;1.20;;;18.40;88.30;;;;;;5452840;26;19998;-46
2024/04/10 12:38:31;;;;;;;6.53;1.58;;;18.20;88.50;;;;;;5452892;26;20067;-46
2024/04/10 12:41:05;;;;;;;6.22;1.20;;;18.10;84.80;;;;;;5452731;26;19995;-46
2024/04/10 12:43:31;;;;;;;4.88;1.20;;;17.90;85.20;;;;;;5452938;26;19995;-47
2024/04/10 12:45:57;;;;;;;6.45;1.20;;;18.00;87.40;;;;;;5453801;26;20007;-48
2024/04/10 12:48:23;;;;;;;5.45;1.25;;;18.10;83.50;;;;;;5453355;26;19999;-50
2024/04/10 12:50:52;;;;;;;7.65;1.35;;;18.10;83.90;;;;;;5453329;26;20048;-52